This is the latest recevied weather packets stored in our database for station/object AJ1L. If no packets are shown the sender has not sent any weather packets the latest 10 day(s).
| Time | Temp. | Humidity | Pressure | Rain* | Wind** | Luminosity | Snow |
|---|---|---|---|---|---|---|---|
| 1777661642 | 16.11° C | 38% | 1008.5 hPa | 0 mm | - | - | - |
| 1777658642 | 15.56° C | 39% | 1008.8 hPa | 0 mm | - | - | - |
| 1777657642 | 15.56° C | 39% | 1009 hPa | 0 mm | - | - | - |
| 1777655642 | 14.44° C | 41% | 1009.2 hPa | 0 mm | - | - | - |
| 1777654642 | 14.44° C | 44% | 1009.2 hPa | 0 mm | - | - | - |
| 1777653642 | 14.44° C | 43% | 1009.1 hPa | 0 mm | - | - | - |
| 1777652642 | 13.89° C | 46% | 1009 hPa | 0 mm | - | - | - |
| 1777651642 | 13.33° C | 49% | 1009.2 hPa | 0 mm | - | - | - |
| 1777650642 | 13.33° C | 50% | 1009.4 hPa | 0 mm | - | - | - |
| 1777649643 | 13.33° C | 50% | 1009.5 hPa | 0 mm | - | - | - |
| 1777648642 | 12.78° C | 52% | 1009.5 hPa | 0 mm | - | - | - |
| 1777646642 | 12.22° C | 53% | 1009.7 hPa | 0 mm | - | - | - |
| 1777644642 | 11.67° C | 56% | 1009.8 hPa | 0 mm | - | - | - |
| 1777643641 | 11.67° C | 58% | 1009.6 hPa | 0 mm | - | - | - |
| 1777642642 | 11.11° C | 61% | 1009.7 hPa | 0 mm | - | - | - |
| 1777641642 | 10° C | 65% | 1009.7 hPa | 0 mm | - | - | - |
| 1777640642 | 10° C | 64% | 1009.6 hPa | 0 mm | - | - | - |
| 1777638642 | 10° C | 64% | 1009.6 hPa | 0 mm | - | - | - |
| 1777637641 | 9.44° C | 67% | 1009.5 hPa | 0 mm | - | - | - |
| 1777636641 | 8.89° C | 68% | 1009.4 hPa | 0 mm | - | - | - |
| 1777635642 | 8.89° C | 69% | 1009.3 hPa | 0 mm | - | - | - |
| 1777634641 | 8.89° C | 72% | 1009.1 hPa | 0 mm | - | - | - |
| 1777633641 | 8.33° C | 73% | 1009.1 hPa | 0 mm | - | - | - |
| 1777632642 | 8.33° C | 75% | 1009 hPa | 0 mm | - | - | - |
| 1777631641 | 7.78° C | 78% | 1008.9 hPa | 0 mm | - | - | - |
* Rain latest hour (hover to see other rain measurements)
** Current wind speed in m/s (hover to see current wind gust speed)